デンパサール の空港の天気 - METARとTAF

デンパサール国際空港 ( WADD / DPS ) - インドネシア バリ島デンパサール
飛行場実況気象(Metar)
観測時間12/11 15:30 WITA (12/11 07:30 UTC)
風向・風速西南西 6m/s
視程10km以上
天気現象
少しの雲 雲底高度 520m
気温31℃
湿度75%
気圧1007hPa
METARWADD 110730Z 24011KT 9999 FEW017 31/26 Q1007 NOSIG
過去の天気等 Google飛行場航空写真 Wunderground天気予報

過去48時間のMETAR

飛行場予報(TAF)
発表時間: 12/11 13:00 WITA (12/11 05:00 UTC)
予報対象時間: 11日14時 WITA ~ 12日14時 WITA
風向・風速西南西 4m/s
視程10km以上
全天の4割程度の雲 雲底高度 490m
11日21時 WITA ~ 12日1時 WITA に一時的に
風向・風速不定 3m/s
TAF WADD 110500Z 1106/1206 25007KT 9999 SCT016
TEMPO 1113/1117 VRB05KT